Time;durP1;ratioP1;P1;durP2;ratioP2;P2;SDS_P1;SDS_P2;PMS_P1;PMS_P2;Temp;Humidity;BMP_temperature;BMP_pressure;BME280_temperature;BME280_humidity;BME280_pressure;Samples;Min_cycle;Max_cycle;Signal;HPM_P1;HPM_P2
2023/06/23 00:00:37;;;;;;;13.57;9.43;;;;;;;16.51;100.00;101938.72;5052853;28;20026;-72
2023/06/23 00:03:02;;;;;;;17.93;10.17;;;;;;;16.51;100.00;101939.59;5058826;28;20473;-72
2023/06/23 00:05:28;;;;;;;17.07;9.47;;;;;;;16.51;100.00;101942.34;5054874;28;20021;-71
2023/06/23 00:07:54;;;;;;;13.40;8.67;;;;;;;16.49;100.00;101941.69;5058971;28;20028;-71
2023/06/23 00:10:20;;;;;;;19.27;9.65;;;;;;;16.49;100.00;101938.09;5059268;28;20060;-71
2023/06/23 00:12:45;;;;;;;21.73;10.23;;;;;;;16.46;100.00;101946.78;5057632;28;20444;-71
2023/06/23 00:15:15;;;;;;;15.83;9.17;;;;;;;16.45;100.00;101942.34;5052988;28;20511;-71
2023/06/23 00:17:44;;;;;;;13.70;9.63;;;;;;;16.38;100.00;101938.69;5053750;28;20036;-71
2023/06/23 00:20:14;;;;;;;15.98;8.88;;;;;;;16.41;100.00;101941.03;5056166;28;20044;-71
2023/06/23 00:22:43;;;;;;;18.45;9.60;;;;;;;16.37;100.00;101945.25;5054187;28;21632;-71
2023/06/23 00:25:10;;;;;;;24.05;10.32;;;;;;;16.30;100.00;101942.47;5045404;28;20029;-71
2023/06/23 00:27:40;;;;;;;14.63;10.45;;;;;;;16.33;100.00;101947.56;5058434;28;20029;-71
2023/06/23 00:30:06;;;;;;;14.98;9.85;;;;;;;16.31;100.00;101954.38;5053961;28;20489;-71
2023/06/23 00:32:32;;;;;;;17.67;10.88;;;;;;;16.40;100.00;101958.69;5041943;28;20374;-71
2023/06/23 00:34:58;;;;;;;22.67;11.37;;;;;;;16.36;100.00;101960.13;5057806;28;20047;-71
2023/06/23 00:37:23;;;;;;;16.50;10.77;;;;;;;16.31;100.00;101960.78;5058657;28;20111;-72
2023/06/23 00:39:48;;;;;;;20.20;11.53;;;;;;;16.29;100.00;101967.56;5048258;28;20040;-71
2023/06/23 00:42:14;;;;;;;17.20;11.37;;;;;;;16.26;100.00;101970.72;5052063;28;20086;-71
2023/06/23 00:44:41;;;;;;;24.13;12.20;;;;;;;16.27;100.00;101983.53;5053710;28;20020;-71
2023/06/23 00:47:06;;;;;;;17.15;11.95;;;;;;;16.19;100.00;101980.91;5050020;28;20308;-71
2023/06/23 00:49:35;;;;;;;17.33;11.23;;;;;;;16.18;100.00;101990.28;5049963;28;20028;-71
2023/06/23 00:52:03;;;;;;;17.67;11.93;;;;;;;16.13;100.00;102001.09;5056668;28;20545;-71
2023/06/23 00:54:29;;;;;;;19.35;11.40;;;;;;;16.12;100.00;101993.88;5051681;28;20844;-72
2023/06/23 00:57:00;;;;;;;15.67;11.60;;;;;;;16.04;100.00;101997.66;5088008;28;20021;-71
2023/06/23 00:59:29;;;;;;;17.70;11.43;;;;;;;16.06;100.00;102001.06;5051121;28;20320;-71
2023/06/23 01:01:59;;;;;;;17.80;11.23;;;;;;;16.03;100.00;102000.63;5057375;28;20029;-72
2023/06/23 01:04:27;;;;;;;14.52;10.77;;;;;;;15.97;100.00;102002.31;5054633;28;20353;-71
2023/06/23 01:06:59;;;;;;;18.40;10.88;;;;;;;15.95;100.00;102004.41;5057164;28;20468;-71
2023/06/23 01:09:47;;;;;;;16.50;12.57;;;;;;;16.01;100.00;102008.28;5055087;28;20033;-71
2023/06/23 01:12:25;;;;;;;18.15;12.15;;;;;;;16.00;100.00;102001.03;5056668;28;20028;-72
2023/06/23 01:15:04;;;;;;;21.25;12.32;;;;;;;15.94;100.00;101996.31;5050711;28;20736;-73
2023/06/23 01:17:55;;;;;;;17.65;12.00;;;;;;;15.84;100.00;102004.97;5059330;28;20162;-72
2023/06/23 01:20:29;;;;;;;16.45;11.63;;;;;;;15.77;100.00;102000.47;5040556;28;20056;-72
2023/06/23 01:23:14;;;;;;;21.63;12.38;;;;;;;15.71;100.00;102006.81;5054401;28;20037;-72
2023/06/23 01:25:53;;;;;;;17.17;12.40;;;;;;;15.72;100.00;102012.13;5071276;28;20032;-73
2023/06/23 01:28:18;;;;;;;20.20;13.05;;;;;;;15.71;100.00;102009.56;5053791;28;20017;-73
2023/06/23 01:30:47;;;;;;;17.00;12.03;;;;;;;15.70;100.00;102011.47;5052159;28;20048;-73
2023/06/23 01:33:18;;;;;;;18.42;13.98;;;;;;;15.79;100.00;102020.47;5054928;28;20537;-72
2023/06/23 01:35:51;;;;;;;23.80;15.57;;;;;;;15.75;100.00;102022.75;5056948;28;20029;-72
2023/06/23 01:38:27;;;;;;;23.05;16.58;;;;;;;15.73;100.00;102022.13;5057420;28;20395;-72
2023/06/23 01:40:55;;;;;;;22.75;16.25;;;;;;;15.74;100.00;102023.00;5061125;28;20036;-73
2023/06/23 01:43:29;;;;;;;23.10;17.58;;;;;;;15.74;100.00;102034.03;5053762;28;20085;-73
2023/06/23 01:46:26;;;;;;;21.30;17.10;;;;;;;15.74;100.00;102042.31;5047878;28;20025;-72
2023/06/23 01:49:01;;;;;;;25.52;18.27;;;;;;;15.73;100.00;102037.84;5042046;28;20067;-73
2023/06/23 01:51:28;;;;;;;27.83;20.02;;;;;;;15.68;100.00;102041.22;5058535;28;20432;-72
2023/06/23 01:53:56;;;;;;;28.30;19.08;;;;;;;15.64;100.00;102050.94;5085059;28;20488;-72
2023/06/23 01:56:23;;;;;;;31.35;20.70;;;;;;;15.74;100.00;102056.16;5052809;28;20029;-73
2023/06/23 01:58:51;;;;;;;36.35;23.42;;;;;;;15.69;100.00;102053.13;5056589;28;20602;-73
2023/06/23 02:01:17;;;;;;;27.40;21.50;;;;;;;15.66;100.00;102054.38;5051157;28;20027;-73
2023/06/23 02:03:46;;;;;;;32.13;22.38;;;;;;;15.66;100.00;102067.31;5058796;28;20070;-74
2023/06/23 02:06:13;;;;;;;29.88;21.27;;;;;;;15.58;100.00;102064.72;5053907;28;20159;-73
2023/06/23 02:08:40;;;;;;;29.90;20.30;;;;;;;15.51;100.00;102072.94;5052592;28;20084;-72
2023/06/23 02:11:06;;;;;;;34.58;21.75;;;;;;;15.52;100.00;102071.88;5051589;28;20384;-73
2023/06/23 02:13:33;;;;;;;;;;;;;;;15.48;100.00;102076.09;5053280;28;20040;-72
2023/06/23 02:16:01;;;;;;;30.65;20.77;;;;;;;15.45;100.00;102070.13;5046177;28;19928;-72
2023/06/23 02:18:27;;;;;;;30.48;20.88;;;;;;;15.43;100.00;102077.75;5053630;28;20039;-73
2023/06/23 02:20:54;;;;;;;28.60;20.50;;;;;;;15.42;100.00;102084.34;5056023;28;20040;-73
2023/06/23 02:23:23;;;;;;;32.33;20.27;;;;;;;15.43;100.00;102077.75;5049906;28;20029;-73
2023/06/23 02:25:50;;;;;;;29.92;20.67;;;;;;;15.47;100.00;102081.84;5050489;28;20020;-73
2023/06/23 02:28:16;;;;;;;28.48;20.48;;;;;;;15.50;100.00;102074.00;5052023;28;20078;-74
2023/06/23 02:30:43;;;;;;;26.33;20.45;;;;;;;15.58;100.00;102081.31;5054478;28;20021;-73
2023/06/23 02:33:08;;;;;;;34.15;23.23;;;;;;;15.63;100.00;102081.56;5052609;28;20033;-74
2023/06/23 02:35:34;;;;;;;38.23;25.27;;;;;;;15.66;100.00;102087.53;5054822;28;20131;-73
2023/06/23 02:38:09;;;;;;;41.50;25.90;;;;;;;15.67;100.00;102093.88;5054133;28;20028;-73
2023/06/23 02:40:36;;;;;;;40.00;27.20;;;;;;;15.72;100.00;102096.91;5049326;28;20029;-73
2023/06/23 02:43:17;;;;;;;48.85;29.85;;;;;;;15.75;100.00;102094.59;5088157;28;20024;-72
2023/06/23 02:45:47;;;;;;;47.70;30.23;;;;;;;15.74;100.00;102105.88;5044622;28;20070;-72
2023/06/23 02:48:19;;;;;;;42.15;26.17;;;;;;;15.69;100.00;102113.91;5051739;28;20040;-71
2023/06/23 02:50:47;;;;;;;49.72;33.42;;;;;;;15.64;100.00;102106.19;5056394;28;20120;-72
2023/06/23 02:53:21;;;;;;;55.03;32.38;;;;;;;15.63;100.00;102110.00;5060853;28;20040;-71
2023/06/23 02:55:49;;;;;;;44.05;30.85;;;;;;;15.56;100.00;102113.78;5088368;28;20029;-71
2023/06/23 02:58:17;;;;;;;47.88;30.73;;;;;;;15.51;100.00;102100.56;5052191;28;20035;-72
2023/06/23 03:00:44;;;;;;;52.60;31.17;;;;;;;15.44;100.00;102105.19;5042709;28;20024;-72
2023/06/23 03:03:14;;;;;;;46.65;30.63;;;;;;;15.42;100.00;102098.16;5054370;28;20060;-70
2023/06/23 03:05:40;;;;;;;49.13;31.45;;;;;;;15.37;100.00;102103.41;5058874;28;20021;-71
2023/06/23 03:08:05;;;;;;;50.60;33.63;;;;;;;15.40;100.00;102111.28;5051545;28;20021;-71
2023/06/23 03:10:31;;;;;;;57.50;34.43;;;;;;;15.40;100.00;102103.00;5053084;28;20046;-71
2023/06/23 03:12:57;;;;;;;50.90;31.57;;;;;;;15.39;100.00;102104.94;5061089;28;20364;-71
2023/06/23 03:15:23;;;;;;;54.55;33.88;;;;;;;15.34;100.00;102104.66;5055950;28;20523;-71
2023/06/23 03:17:52;;;;;;;59.17;33.20;;;;;;;15.26;100.00;102103.91;5056832;28;20037;-71
2023/06/23 03:20:30;;;;;;;62.67;35.50;;;;;;;15.25;100.00;102114.09;5056980;28;20040;-71
2023/06/23 03:23:07;;;;;;;47.80;33.17;;;;;;;15.23;100.00;102115.34;5052826;28;20037;-71
2023/06/23 03:25:33;;;;;;;51.03;32.83;;;;;;;15.24;100.00;102117.03;5056695;28;20496;-71
2023/06/23 03:28:04;;;;;;;57.30;34.87;;;;;;;15.24;100.00;102117.03;5058184;28;20498;-71
2023/06/23 03:30:50;;;;;;;53.80;34.50;;;;;;;15.20;100.00;102121.25;5059468;28;20506;-71
2023/06/23 03:33:23;;;;;;;52.75;34.33;;;;;;;15.15;100.00;102121.84;5055813;28;20033;-71
2023/06/23 03:35:50;;;;;;;57.40;38.20;;;;;;;15.15;100.00;102137.56;5051819;28;20040;-71
2023/06/23 03:38:21;;;;;;;57.63;34.60;;;;;;;15.10;100.00;102129.84;5063357;28;20420;-72
2023/06/23 03:41:02;;;;;;;52.50;34.97;;;;;;;15.11;100.00;102127.94;5091850;28;20037;-72
2023/06/23 03:43:36;;;;;;;57.70;36.00;;;;;;;15.12;100.00;102144.31;5059688;28;20537;-71
2023/06/23 03:46:07;;;;;;;58.53;36.33;;;;;;;15.17;100.00;102133.56;5067241;28;20039;-71
2023/06/23 03:48:39;;;;;;;57.20;36.53;;;;;;;15.24;100.00;102140.00;5050379;28;20040;-71
2023/06/23 03:51:05;;;;;;;63.00;37.40;;;;;;;15.25;100.00;102144.44;5058839;28;20067;-71
2023/06/23 03:53:32;;;;;;;57.22;37.97;;;;;;;15.25;100.00;102149.09;5052268;28;20508;-71
2023/06/23 03:56:01;;;;;;;57.75;37.83;;;;;;;15.28;100.00;102149.59;5049108;28;20047;-74
2023/06/23 03:58:29;;;;;;;62.97;40.20;;;;;;;15.33;100.00;102152.66;5077693;28;20051;-73
2023/06/23 04:00:57;;;;;;;71.60;43.35;;;;;;;15.47;100.00;102154.47;5076184;28;20170;-73
2023/06/23 04:03:24;;;;;;;62.75;42.22;;;;;;;15.46;100.00;102149.16;5044164;28;20114;-74
2023/06/23 04:05:50;;;;;;;59.72;38.97;;;;;;;15.52;100.00;102153.91;5052026;28;20071;-73
2023/06/23 04:08:19;;;;;;;72.50;42.63;;;;;;;15.54;100.00;102152.63;5052350;28;20056;-73
2023/06/23 04:10:47;;;;;;;68.10;44.70;;;;;;;15.67;100.00;102149.16;5048701;28;20404;-73
2023/06/23 04:13:14;;;;;;;70.57;45.78;;;;;;;15.77;100.00;102152.44;5061963;28;20047;-74
2023/06/23 04:15:40;;;;;;;73.72;43.13;;;;;;;15.81;100.00;102156.50;5050913;28;20036;-73
2023/06/23 04:18:08;;;;;;;68.68;44.15;;;;;;;15.89;100.00;102153.59;5042595;28;20502;-73
2023/06/23 04:20:37;;;;;;;69.82;42.75;;;;;;;15.93;100.00;102171.47;5061014;28;20382;-73
2023/06/23 04:23:05;;;;;;;67.15;42.80;;;;;;;15.95;100.00;102158.34;5060603;28;20468;-73
2023/06/23 04:25:30;;;;;;;69.10;44.50;;;;;;;16.02;100.00;102164.78;5055996;28;20028;-73
2023/06/23 04:28:00;;;;;;;73.73;44.37;;;;;;;16.08;100.00;102170.34;5050875;28;20600;-74
2023/06/23 04:30:29;;;;;;;73.80;44.95;;;;;;;16.12;100.00;102160.56;5086282;28;20135;-74
2023/06/23 04:32:56;;;;;;;61.78;40.42;;;;;;;16.18;100.00;102164.47;5055288;28;20036;-74
2023/06/23 04:35:25;;;;;;;66.68;41.72;;;;;;;16.19;100.00;102174.47;5090671;28;20028;-74
2023/06/23 04:38:01;;;;;;;65.13;42.95;;;;;;;16.27;100.00;102180.69;5059200;28;20029;-74
2023/06/23 04:41:07;;;;;;;62.33;40.53;;;;;;;16.33;100.00;102173.50;5069291;28;20029;-73
2023/06/23 04:43:37;;;;;;;67.32;40.95;;;;;;;16.42;100.00;102183.38;5001083;28;20060;-73
2023/06/23 04:46:14;;;;;;;59.90;39.80;;;;;;;16.50;100.00;102188.75;4998757;28;20076;-74
2023/06/23 04:48:48;;;;;;;61.38;40.10;;;;;;;16.62;100.00;102195.41;5031441;28;20090;-73
2023/06/23 04:51:16;;;;;;;59.05;39.78;;;;;;;16.71;100.00;102185.91;5056165;28;20055;-73
2023/06/23 04:53:50;;;;;;;53.95;36.50;;;;;;;16.76;100.00;102183.38;5054703;28;20409;-74
2023/06/23 04:56:19;;;;;;;59.83;36.72;;;;;;;16.84;100.00;102189.59;5052849;28;20029;-73
2023/06/23 04:58:50;;;;;;;60.97;38.53;;;;;;;16.89;100.00;102186.19;5047593;28;20028;-74
2023/06/23 05:01:18;;;;;;;55.60;36.92;;;;;;;16.95;100.00;102185.38;5044512;28;20021;-73
2023/06/23 05:03:48;;;;;;;53.67;35.72;;;;;;;16.99;100.00;102186.69;5049005;28;20021;-73
2023/06/23 05:06:17;;;;;;;50.55;35.80;;;;;;;17.10;100.00;102183.31;5050209;28;20057;-74
2023/06/23 05:08:45;;;;;;;51.35;34.97;;;;;;;17.17;100.00;102189.72;5055276;28;20411;-73
2023/06/23 05:11:14;;;;;;;56.95;35.47;;;;;;;17.30;100.00;102195.31;5051274;28;20032;-74
2023/06/23 05:13:40;;;;;;;47.53;31.90;;;;;;;17.39;100.00;102199.66;5054750;28;20448;-74
2023/06/23 05:16:10;;;;;;;45.65;31.52;;;;;;;17.64;100.00;102214.63;5060150;28;20097;-74
2023/06/23 05:18:42;;;;;;;46.58;30.80;;;;;;;17.77;100.00;102223.81;5056740;28;20508;-74
2023/06/23 05:21:09;;;;;;;42.47;29.27;;;;;;;17.76;100.00;102229.59;5058298;28;20060;-74
2023/06/23 05:23:37;;;;;;;45.10;29.95;;;;;;;18.07;100.00;102229.81;5085708;28;20476;-74
2023/06/23 05:26:07;;;;;;;41.72;29.52;;;;;;;18.32;100.00;102239.25;5050311;28;20066;-74
2023/06/23 05:28:35;;;;;;;38.90;28.33;;;;;;;19.18;100.00;102234.16;5053127;28;20028;-73
2023/06/23 05:31:03;;;;;;;41.42;27.50;;;;;;;19.65;100.00;102232.88;5050509;28;20025;-73
2023/06/23 05:33:36;;;;;;;33.78;24.13;;;;;;;20.23;100.00;102240.00;5050765;28;20032;-72
2023/06/23 05:36:04;;;;;;;36.05;25.45;;;;;;;20.38;100.00;102237.72;5050686;28;20131;-73
2023/06/23 05:38:30;;;;;;;32.10;24.42;;;;;;;20.43;100.00;102241.53;5067517;28;20036;-73
2023/06/23 05:40:56;;;;;;;33.22;23.67;;;;;;;20.63;100.00;102244.09;5056317;28;20155;-73
2023/06/23 05:43:22;;;;;;;35.42;23.45;;;;;;;21.18;98.80;102238.38;5046552;28;20070;-74
2023/06/23 05:45:49;;;;;;;31.63;23.10;;;;;;;21.50;98.95;102239.91;5051911;28;20066;-74
2023/06/23 05:48:28;;;;;;;29.42;22.17;;;;;;;21.88;93.81;102239.63;5050214;28;20510;-74
2023/06/23 05:50:58;;;;;;;30.55;22.15;;;;;;;22.31;92.69;102243.00;5055572;28;20029;-74
2023/06/23 05:53:25;;;;;;;33.20;22.23;;;;;;;22.51;87.89;102251.94;5035568;28;20033;-74
2023/06/23 05:56:20;;;;;;;28.35;21.10;;;;;;;22.33;88.16;102246.38;5046953;28;20100;-74
2023/06/23 05:58:47;;;;;;;24.40;20.15;;;;;;;22.81;88.55;102249.84;5049465;28;20392;-73
2023/06/23 06:01:16;;;;;;;28.17;20.33;;;;;;;22.95;88.39;102252.16;5055815;28;20016;-74
2023/06/23 06:03:48;;;;;;;21.60;18.98;;;;;;;23.55;82.04;102259.13;5047423;28;20021;-74
2023/06/23 06:06:15;;;;;;;25.20;19.40;;;;;;;23.36;81.08;102252.00;5048084;28;20365;-73
2023/06/23 06:08:43;;;;;;;23.58;18.20;;;;;;;23.22;83.61;102272.09;5050713;28;20374;-74
2023/06/23 06:11:11;;;;;;;23.65;18.77;;;;;;;23.73;82.18;102270.13;5056580;28;20036;-74
2023/06/23 06:13:43;;;;;;;23.40;17.60;;;;;;;23.61;80.93;102269.31;5053409;28;20025;-74
2023/06/23 06:16:10;;;;;;;21.52;18.02;;;;;;;24.15;78.08;102268.75;5045880;28;20041;-73
2023/06/23 06:18:37;;;;;;;21.83;17.70;;;;;;;23.88;79.76;102269.56;5083100;28;20112;-74
2023/06/23 06:21:04;;;;;;;27.55;19.25;;;;;;;24.12;79.83;102271.19;5050205;28;20578;-74
2023/06/23 06:23:31;;;;;;;23.48;17.58;;;;;;;24.30;80.30;102279.38;5046991;28;20069;-74
2023/06/23 06:25:59;;;;;;;21.27;17.08;;;;;;;24.28;77.03;102279.59;5057276;28;20112;-74
2023/06/23 06:28:27;;;;;;;21.90;17.73;;;;;;;24.32;78.02;102283.59;5059452;28;20048;-74
2023/06/23 06:30:54;;;;;;;25.95;16.90;;;;;;;24.50;77.96;102288.13;5047590;28;20033;-72
2023/06/23 06:33:20;;;;;;;24.20;17.63;;;;;;;24.65;76.31;102283.66;5049372;28;20071;-71
2023/06/23 06:35:47;;;;;;;21.33;16.63;;;;;;;24.96;75.44;102277.44;5050397;28;20373;-71
2023/06/23 06:38:15;;;;;;;23.40;17.75;;;;;;;25.25;74.63;102284.63;5048842;28;20195;-70
2023/06/23 06:40:42;;;;;;;20.23;16.60;;;;;;;24.65;78.49;102294.03;5055690;28;20024;-71
2023/06/23 06:43:08;;;;;;;21.00;16.13;;;;;;;25.02;71.40;102283.97;5047186;28;20029;-71
2023/06/23 06:45:33;;;;;;;21.90;15.00;;;;;;;24.92;69.43;102292.22;5048792;28;20039;-71
2023/06/23 06:48:00;;;;;;;;;;;;;;;24.80;69.46;102291.47;5048157;28;20506;-71
2023/06/23 06:50:26;;;;;;;21.17;14.10;;;;;;;24.96;69.36;102294.25;5053406;28;19913;-71
2023/06/23 06:52:52;;;;;;;18.52;14.95;;;;;;;25.30;71.02;102304.31;5046319;28;20024;-71
2023/06/23 06:55:19;;;;;;;18.60;14.68;;;;;;;24.62;70.04;102306.59;5055030;28;20048;-71
2023/06/23 06:57:46;;;;;;;23.00;15.85;;;;;;;25.14;70.99;102307.97;5062731;28;20499;-72
2023/06/23 07:00:13;;;;;;;22.42;15.13;;;;;;;25.13;71.19;102306.28;5049545;28;20025;-71
2023/06/23 07:02:39;;;;;;;17.15;13.38;;;;;;;25.69;71.81;102306.00;5047581;28;20096;-71
2023/06/23 07:05:05;;;;;;;18.50;12.63;;;;;;;25.62;70.12;102307.28;5055967;28;20051;-71
2023/06/23 07:07:30;;;;;;;;;;;;;;;25.90;67.18;102307.06;5059245;28;20037;-71
2023/06/23 07:09:56;;;;;;;18.95;12.23;;;;;;;25.64;67.78;102314.34;5062259;28;19913;-72
2023/06/23 07:12:23;;;;;;;17.67;11.70;;;;;;;25.83;65.79;102309.25;5060349;28;20454;-71
2023/06/23 07:14:49;;;;;;;18.15;11.50;;;;;;;26.00;66.46;102313.72;5052089;28;20273;-71
2023/06/23 07:17:14;;;;;;;19.48;9.85;;;;;;;25.82;66.95;102318.78;5050537;28;20064;-71
2023/06/23 07:19:40;;;;;;;15.30;9.18;;;;;;;25.89;62.82;102322.25;5048000;28;20575;-71
2023/06/23 07:22:06;;;;;;;14.73;10.20;;;;;;;25.48;64.87;102317.19;5053008;28;20760;-71
2023/06/23 07:24:31;;;;;;;13.13;9.77;;;;;;;25.86;65.75;102325.56;5055607;28;20097;-72
2023/06/23 07:26:57;;;;;;;12.02;9.38;;;;;;;25.65;66.81;102324.47;5059142;28;20033;-71
2023/06/23 07:29:22;;;;;;;13.37;8.23;;;;;;;25.55;66.12;102332.75;5059838;28;20108;-71
2023/06/23 07:31:47;;;;;;;13.47;9.13;;;;;;;25.50;68.66;102331.84;5046117;28;20278;-71
2023/06/23 07:34:13;;;;;;;12.73;9.13;;;;;;;25.71;63.32;102325.41;5050566;28;20029;-71
2023/06/23 07:36:38;;;;;;;10.30;8.40;;;;;;;25.19;62.48;102340.91;5055242;28;20364;-72
2023/06/23 07:39:04;;;;;;;14.23;7.93;;;;;;;25.25;64.44;102332.34;5051930;28;20036;-71
2023/06/23 07:41:30;;;;;;;;;;;;;;;25.64;65.41;102339.63;5053379;28;20024;-71
2023/06/23 07:43:55;;;;;;;10.73;8.18;;;;;;;25.80;65.92;102338.72;5057898;28;20437;-71
2023/06/23 07:46:20;;;;;;;13.90;8.53;;;;;;;25.66;62.83;102330.94;5051304;28;20021;-71
2023/06/23 07:48:46;;;;;;;13.80;9.10;;;;;;;25.38;65.44;102343.19;5048920;28;20029;-71
2023/06/23 07:51:11;;;;;;;13.30;8.57;;;;;;;25.32;65.60;102344.22;5050440;28;20037;-71
2023/06/23 07:53:37;;;;;;;13.13;8.93;;;;;;;25.38;63.37;102340.38;5053861;28;20040;-71
2023/06/23 07:56:02;;;;;;;12.97;7.50;;;;;;;25.48;65.91;102337.72;5060628;28;20021;-71
2023/06/23 07:58:27;;;;;;;12.20;7.07;;;;;;;25.42;65.33;102343.50;5058997;28;20052;-71
2023/06/23 08:00:53;;;;;;;11.40;7.37;;;;;;;25.46;63.74;102344.69;5060342;28;20469;-71
2023/06/23 08:03:19;;;;;;;13.80;8.98;;;;;;;25.34;64.80;102342.00;5062967;28;20036;-70
2023/06/23 08:05:45;;;;;;;;;;;;;;;24.83;66.41;102350.69;5062071;28;20483;-71
2023/06/23 08:08:10;;;;;;;13.98;10.45;;;;;;;24.83;67.56;102339.47;5057106;28;19919;-71
2023/06/23 08:10:35;;;;;;;17.70;12.27;;;;;;;24.71;69.71;102343.47;5058237;28;20033;-71
2023/06/23 08:13:01;;;;;;;18.53;13.23;;;;;;;24.59;70.56;102337.94;5051640;28;20036;-71
2023/06/23 08:15:27;;;;;;;20.93;13.70;;;;;;;24.71;71.72;102346.28;5048744;28;20149;-71
2023/06/23 08:17:54;;;;;;;24.65;12.73;;;;;;;24.77;69.93;102348.06;5062484;28;20047;-70
2023/06/23 08:20:20;;;;;;;17.27;11.60;;;;;;;24.80;70.84;102339.97;5049949;28;20036;-71
2023/06/23 08:22:45;;;;;;;18.00;12.85;;;;;;;24.71;68.14;102347.09;5059457;28;20408;-71
2023/06/23 08:25:11;;;;;;;19.27;11.40;;;;;;;24.49;72.42;102351.72;5055840;28;20158;-71
2023/06/23 08:27:36;;;;;;;20.25;12.45;;;;;;;24.52;72.06;102345.63;5056924;28;20538;-71
2023/06/23 08:30:02;;;;;;;14.37;9.53;;;;;;;24.79;68.93;102351.44;5055011;28;20045;-71
2023/06/23 08:32:29;;;;;;;13.10;8.75;;;;;;;24.73;71.83;102358.94;5059445;28;20059;-71
2023/06/23 08:34:55;;;;;;;13.23;9.98;;;;;;;24.52;68.76;102347.56;5058776;28;20032;-70
2023/06/23 08:37:20;;;;;;;14.77;9.73;;;;;;;24.66;71.08;102358.22;5060789;28;20032;-71
2023/06/23 08:39:45;;;;;;;13.97;10.77;;;;;;;24.61;68.87;102360.97;5056973;28;20024;-70
2023/06/23 08:42:12;;;;;;;16.40;10.33;;;;;;;24.65;70.46;102364.94;5056472;28;20036;-71
2023/06/23 08:44:43;;;;;;;;;;;;;;;24.90;68.15;102365.38;5055715;28;20463;-70
2023/06/23 08:47:12;;;;;;;13.07;8.95;;;;;;;24.91;68.10;102366.25;5059141;28;20350;-71
2023/06/23 08:49:41;;;;;;;14.90;9.10;;;;;;;25.08;67.32;102355.88;5056278;28;20024;-71
2023/06/23 08:52:08;;;;;;;12.70;8.18;;;;;;;25.11;65.78;102369.38;5058916;28;20438;-71
2023/06/23 08:54:35;;;;;;;13.85;9.02;;;;;;;24.76;67.63;102363.19;5059293;28;20025;-71
2023/06/23 08:57:01;;;;;;;13.40;7.90;;;;;;;24.91;66.53;102364.28;5060771;28;20032;-71
2023/06/23 08:59:27;;;;;;;10.50;7.45;;;;;;;25.04;66.85;102366.75;5057226;28;20429;-71
2023/06/23 09:01:52;;;;;;;12.47;8.67;;;;;;;25.24;66.34;102372.66;5054587;28;20040;-71
2023/06/23 09:04:19;;;;;;;11.70;8.13;;;;;;;25.14;66.61;102371.66;5060896;28;20338;-71
2023/06/23 09:06:45;;;;;;;11.70;8.77;;;;;;;25.01;66.26;102374.81;5047133;28;20017;-70
2023/06/23 09:09:11;;;;;;;;;;;;;;;25.20;65.42;102381.88;5051102;28;20043;-70
2023/06/23 09:11:37;;;;;;;9.52;7.43;;;;;;;25.24;65.10;102394.28;5050590;28;19920;-71
2023/06/23 09:14:06;;;;;;;8.20;6.28;;;;;;;25.42;65.41;102396.81;5054999;28;20024;-71
2023/06/23 09:16:32;;;;;;;12.77;6.53;;;;;;;25.59;63.66;102392.88;5058292;28;20037;-71
2023/06/23 09:19:02;;;;;;;13.50;7.18;;;;;;;25.38;62.66;102392.81;5057191;28;20105;-71
2023/06/23 09:21:28;;;;;;;8.48;5.93;;;;;;;25.81;64.34;102390.09;5057957;28;20049;-71
2023/06/23 09:23:58;;;;;;;10.83;6.37;;;;;;;25.89;62.11;102393.31;5054444;28;20041;-72
2023/06/23 09:26:25;;;;;;;7.00;6.07;;;;;;;26.02;59.85;102390.13;5056604;28;20021;-71
2023/06/23 09:28:51;;;;;;;8.98;6.05;;;;;;;25.88;60.78;102390.75;5056942;28;20051;-71
2023/06/23 09:31:17;;;;;;;7.20;5.40;;;;;;;26.05;59.05;102383.16;5056333;28;20804;-71
2023/06/23 09:33:47;;;;;;;12.88;6.85;;;;;;;25.88;61.31;102385.97;5060326;28;20099;-71
2023/06/23 09:36:13;;;;;;;7.75;6.28;;;;;;;26.17;62.18;102401.56;5058275;28;20488;-71
2023/06/23 09:38:39;;;;;;;7.53;5.90;;;;;;;26.27;59.37;102400.81;5047682;28;20115;-72
2023/06/23 09:41:15;;;;;;;8.27;5.13;;;;;;;26.32;60.05;102392.47;5051850;28;20037;-71
2023/06/23 09:43:50;;;;;;;8.95;5.18;;;;;;;26.54;59.94;102393.25;5050535;28;20068;-72
2023/06/23 09:46:17;;;;;;;7.78;4.32;;;;;;;26.53;59.58;102394.38;5048869;28;20028;-71
2023/06/23 09:48:49;;;;;;;7.05;4.65;;;;;;;26.80;55.69;102395.25;5045094;28;20059;-72
2023/06/23 09:51:18;;;;;;;10.00;5.10;;;;;;;26.56;56.68;102405.13;5052352;28;20493;-72
2023/06/23 09:53:44;;;;;;;9.93;4.07;;;;;;;26.52;56.38;102399.13;5055964;28;20028;-72
2023/06/23 09:56:18;;;;;;;6.47;3.78;;;;;;;27.01;58.59;102395.16;5044576;28;20022;-72
2023/06/23 09:58:45;;;;;;;7.53;3.40;;;;;;;27.12;55.59;102396.09;5047803;28;20028;-72
2023/06/23 10:01:15;;;;;;;6.65;4.32;;;;;;;27.21;55.34;102403.78;5059226;28;20235;-72
2023/06/23 10:03:46;;;;;;;10.18;5.15;;;;;;;27.26;54.42;102411.44;5062981;28;20076;-71
2023/06/23 10:06:34;;;;;;;7.63;4.38;;;;;;;27.11;54.13;102408.47;5053286;28;20009;-72
2023/06/23 10:09:02;;;;;;;8.77;3.50;;;;;;;27.36;51.47;102411.53;5063254;28;20387;-71
2023/06/23 10:11:30;;;;;;;7.15;4.28;;;;;;;27.24;53.18;102408.03;5060970;28;20029;-72
2023/06/23 10:13:58;;;;;;;8.63;4.38;;;;;;;27.05;50.73;102401.09;5049153;28;20028;-71
2023/06/23 10:16:23;;;;;;;5.55;4.05;;;;;;;26.95;53.24;102398.19;5058675;28;20028;-72
2023/06/23 10:18:49;;;;;;;7.90;4.22;;;;;;;27.32;52.07;102390.66;5054511;28;20082;-72
2023/06/23 10:21:14;;;;;;;4.57;3.85;;;;;;;27.50;51.63;102387.38;5055378;28;20064;-72
2023/06/23 10:23:40;;;;;;;8.40;3.53;;;;;;;27.54;51.57;102399.81;5057533;28;20088;-72
2023/06/23 10:26:06;;;;;;;4.90;3.50;;;;;;;27.78;49.11;102395.44;5063016;28;20448;-72
2023/06/23 10:28:33;;;;;;;;;;;;;;;27.45;45.77;102404.25;5048762;28;20738;-72
2023/06/23 10:31:02;;;;;;;7.60;3.47;;;;;;;27.73;48.33;102401.03;5049364;28;19961;-72
2023/06/23 10:33:28;;;;;;;6.22;3.42;;;;;;;28.01;47.79;102403.47;5061381;28;20039;-72
2023/06/23 10:35:54;;;;;;;4.70;3.92;;;;;;;28.00;49.76;102402.63;5058987;28;20024;-72
2023/06/23 10:38:21;;;;;;;;;;;;;;;28.13;48.98;102409.72;5048225;28;20036;-71
2023/06/23 10:40:49;;;;;;;;;;;;;;;27.84;51.81;102414.13;5055283;28;19947;-71
2023/06/23 10:43:17;;;;;;;9.23;4.53;;;;;;;27.92;48.67;102414.44;5077327;28;20447;-72
2023/06/23 10:45:44;;;;;;;7.75;3.97;;;;;;;27.89;47.62;102417.78;5058103;28;20172;-72
2023/06/23 10:48:09;;;;;;;5.30;3.80;;;;;;;27.96;47.25;102417.56;5061810;28;20049;-71
2023/06/23 10:50:35;;;;;;;5.68;3.83;;;;;;;28.10;48.89;102421.53;5056337;28;20025;-72
2023/06/23 10:53:11;;;;;;;4.22;3.83;;;;;;;28.04;46.54;102419.81;5056007;28;20492;-71
2023/06/23 10:55:42;;;;;;;4.70;4.10;;;;;;;28.06;47.46;102428.88;5063053;28;20029;-71
2023/06/23 10:58:18;;;;;;;7.70;3.35;;;;;;;28.43;47.85;102438.91;5058212;28;20025;-72
2023/06/23 11:01:05;;;;;;;7.28;3.90;;;;;;;28.30;47.48;102427.25;5055714;28;20507;-72
2023/06/23 11:03:35;;;;;;;7.53;3.65;;;;;;;28.43;47.46;102444.53;5054638;28;20404;-72
2023/06/23 11:06:07;;;;;;;5.15;3.42;;;;;;;28.26;47.24;102424.16;5045411;28;20035;-71
2023/06/23 11:08:35;;;;;;;4.45;4.00;;;;;;;28.51;45.49;102432.75;5049027;28;20377;-71
2023/06/23 11:11:08;;;;;;;8.88;3.70;;;;;;;28.29;46.57;102428.41;5057438;28;20040;-71
2023/06/23 11:13:44;;;;;;;5.05;3.00;;;;;;;28.43;45.33;102441.72;5050048;28;20029;-71
2023/06/23 11:16:12;;;;;;;6.70;3.23;;;;;;;28.28;43.68;102426.72;5049984;28;20021;-71
2023/06/23 11:18:47;;;;;;;6.28;3.42;;;;;;;28.41;44.29;102429.03;5052966;28;20412;-70